Terminal Aerodrome Forecast
Issued by NWS

Home | Current Version | Previous Version | Graphics & Text | Print | Product List | Glossary On
Versions: 1 2 3 4 5 6 7 8 9 10 11 12 13 14 15
309
FTUS43 KGRB 110522
TAFAUW
TAF
KAUW 110522Z 1106/1206 33005KT P6SM SCT025
      TEMPO 1106/1110 BKN025
     FM111500 29008G13KT P6SM SKC
     FM112200 26006KT P6SM BKN080=

USA.gov is the U.S. government's official web portal to all federal, state and local government web resources and services.